createdAt,value
2022-09-15T00:00:30.302Z,99480.84
2022-09-15T00:02:57.145Z,99475.16
2022-09-15T00:05:24.125Z,99475.66
2022-09-15T00:07:50.995Z,99477.47
2022-09-15T00:10:18.036Z,99475.03
2022-09-15T00:12:44.838Z,99486.59
2022-09-15T00:15:14.787Z,99490.06
2022-09-15T00:17:43.236Z,99484.59
2022-09-15T00:20:10.993Z,99479.50
2022-09-15T00:22:38.272Z,99485.72
2022-09-15T00:25:06.043Z,99479.88
2022-09-15T00:27:33.822Z,99477.72
2022-09-15T00:30:00.827Z,99490.06
2022-09-15T00:32:28.022Z,99497.00
2022-09-15T00:34:57.588Z,99505.94
2022-09-15T00:37:24.368Z,99497.00
2022-09-15T00:39:51.171Z,99495.78
2022-09-15T00:42:20.597Z,99494.53
2022-09-15T00:44:52.828Z,99484.19
2022-09-15T00:47:23.818Z,99486.06
2022-09-15T00:49:59.039Z,99473.38
2022-09-15T00:52:37.629Z,99459.91
2022-09-15T00:55:22.408Z,99462.59
2022-09-15T00:58:03.715Z,99451.97
2022-09-15T01:00:30.471Z,99453.81
2022-09-15T01:02:57.833Z,99459.69
2022-09-15T01:05:30.213Z,99465.31
2022-09-15T01:08:11.791Z,99460.16
2022-09-15T01:10:40.445Z,99460.09
2022-09-15T01:13:13.110Z,99456.38
2022-09-15T01:16:01.817Z,99463.00
2022-09-15T01:18:38.550Z,99464.91
2022-09-15T01:21:25.253Z,99462.47
2022-09-15T01:24:07.236Z,99474.88
2022-09-15T01:27:37.595Z,99479.41
2022-09-15T01:30:15.502Z,99481.63
2022-09-15T01:33:06.704Z,99477.94
2022-09-15T01:35:55.171Z,99472.59
2022-09-15T01:38:37.836Z,99475.81
2022-09-15T01:41:25.499Z,99475.69
2022-09-15T01:44:05.375Z,99474.09
2022-09-15T01:46:35.779Z,99473.28
2022-09-15T01:49:04.827Z,99474.47
2022-09-15T01:51:33.892Z,99484.38
2022-09-15T01:54:03.932Z,99492.88
2022-09-15T01:56:30.822Z,99521.81
2022-09-15T01:58:58.079Z,99533.94
2022-09-15T02:01:33.649Z,99545.69
2022-09-15T02:04:23.077Z,99537.28
2022-09-15T02:07:04.072Z,99507.78
2022-09-15T02:09:36.874Z,99501.91
2022-09-15T02:12:20.447Z,99493.63
2022-09-15T02:15:01.104Z,99490.03
2022-09-15T02:17:31.286Z,99476.72
2022-09-15T02:20:15.716Z,99466.88
2022-09-15T02:22:49.040Z,99446.00
2022-09-15T02:25:25.054Z,99422.03
2022-09-15T02:27:55.297Z,99422.38
2022-09-15T02:30:22.454Z,99447.59
2022-09-15T02:32:56.198Z,99446.22
2022-09-15T02:35:26.272Z,99436.09
2022-09-15T02:37:54.504Z,99456.09
2022-09-15T02:40:22.589Z,99454.16
2022-09-15T02:42:58.488Z,99463.88
2022-09-15T02:45:25.830Z,99463.78
2022-09-15T02:47:52.645Z,99474.25
2022-09-15T02:50:20.622Z,99496.28
2022-09-15T02:52:47.328Z,99514.56
2022-09-15T02:55:14.086Z,99518.44
2022-09-15T02:57:40.755Z,99530.59
2022-09-15T03:00:14.599Z,99527.66
2022-09-15T03:02:43.803Z,99528.47
2022-09-15T03:05:11.954Z,99532.56
2022-09-15T03:07:38.833Z,99533.13
2022-09-15T03:10:07.748Z,99531.41
2022-09-15T03:12:42.836Z,99508.13
2022-09-15T03:15:11.716Z,99505.72
2022-09-15T03:17:41.687Z,99497.88
2022-09-15T03:20:10.819Z,99489.28
2022-09-15T03:22:37.508Z,99489.78
2022-09-15T03:25:05.629Z,99492.03
2022-09-15T03:27:33.876Z,99484.19
2022-09-15T03:30:00.595Z,99475.81
2022-09-15T03:32:27.602Z,99480.59
2022-09-15T03:34:58.374Z,99476.75
2022-09-15T03:37:26.145Z,99483.19
2022-09-15T03:39:53.172Z,99477.25
2022-09-15T03:42:20.403Z,99482.38
2022-09-15T03:44:47.265Z,99485.34
2022-09-15T03:47:13.986Z,99484.53
2022-09-15T03:49:40.621Z,99479.94
2022-09-15T03:52:07.432Z,99483.19
2022-09-15T03:54:35.923Z,99481.59
2022-09-15T03:57:03.402Z,99480.69
2022-09-15T03:59:30.138Z,99481.41
2022-09-15T04:01:57.096Z,99470.31
2022-09-15T04:04:23.881Z,99478.63
2022-09-15T04:06:50.504Z,99471.38
2022-09-15T04:09:17.354Z,99472.50
2022-09-15T04:11:43.999Z,99469.31
2022-09-15T04:14:10.757Z,99459.28
2022-09-15T04:16:37.542Z,99469.06
2022-09-15T04:19:04.660Z,99480.84
2022-09-15T04:21:32.094Z,99484.03
2022-09-15T04:23:58.895Z,99482.25
2022-09-15T04:26:25.576Z,99482.00
2022-09-15T04:28:52.366Z,99473.41
2022-09-15T04:31:19.977Z,99468.38
2022-09-15T04:33:47.735Z,99482.25
2022-09-15T04:36:17.574Z,99495.63
2022-09-15T04:38:45.067Z,99503.69
2022-09-15T04:41:12.454Z,99513.56
2022-09-15T04:43:39.370Z,99512.28
2022-09-15T04:46:06.544Z,99519.56
2022-09-15T04:48:33.770Z,99521.16
2022-09-15T04:51:06.070Z,99538.56
2022-09-15T04:53:32.877Z,99537.41
2022-09-15T04:56:07.140Z,99546.63
2022-09-15T04:58:39.106Z,99543.63
2022-09-15T05:01:15.270Z,99552.09
2022-09-15T05:03:42.644Z,99569.25
2022-09-15T05:06:13.086Z,99573.47
2022-09-15T05:08:40.143Z,99563.75
2022-09-15T05:11:11.969Z,99555.41
2022-09-15T05:13:39.936Z,99553.75
2022-09-15T05:16:13.201Z,99552.78
2022-09-15T05:18:41.271Z,99555.75
2022-09-15T05:21:09.685Z,99548.78
2022-09-15T05:23:37.214Z,99539.50
2022-09-15T05:26:07.234Z,99542.75
2022-09-15T05:28:36.042Z,99534.59
2022-09-15T05:31:09.187Z,99546.13
2022-09-15T05:33:36.361Z,99553.78
2022-09-15T05:36:03.444Z,99564.25
2022-09-15T05:38:32.100Z,99567.19
2022-09-15T05:41:03.983Z,99578.28
2022-09-15T05:43:32.913Z,99573.97
2022-09-15T05:46:00.099Z,99573.81
2022-09-15T05:48:27.414Z,99564.41
2022-09-15T05:50:56.405Z,99564.66
2022-09-15T05:53:24.478Z,99561.97
2022-09-15T05:56:01.667Z,99562.13
2022-09-15T05:58:28.861Z,99549.81
2022-09-15T06:00:55.750Z,99555.41
2022-09-15T06:03:27.484Z,99549.13
2022-09-15T06:06:02.800Z,99538.09
2022-09-15T06:08:59.316Z,99537.59
2022-09-15T06:11:29.922Z,99539.00
2022-09-15T06:14:00.263Z,99534.34
2022-09-15T06:16:27.169Z,99525.41
2022-09-15T06:18:54.447Z,99529.31
2022-09-15T06:21:26.462Z,99530.78
2022-09-15T06:23:55.285Z,99537.31
2022-09-15T06:26:23.254Z,99551.78
2022-09-15T06:28:55.630Z,99543.06
2022-09-15T06:31:22.973Z,99560.13
2022-09-15T06:33:51.850Z,99563.69
2022-09-15T06:36:21.171Z,99558.34
2022-09-15T06:38:48.396Z,99547.06
2022-09-15T06:41:15.937Z,99537.91
2022-09-15T06:43:43.525Z,99537.16
2022-09-15T06:46:14.480Z,99554.38
2022-09-15T06:48:44.300Z,99558.72
2022-09-15T06:51:15.640Z,99558.03
2022-09-15T06:53:42.345Z,99563.78
2022-09-15T06:56:14.853Z,99559.78
2022-09-15T06:58:43.246Z,99546.94
2022-09-15T07:01:19.216Z,99538.03
2022-09-15T07:03:46.018Z,99542.69
2022-09-15T07:06:12.824Z,99552.97
2022-09-15T07:08:40.843Z,99554.59
2022-09-15T07:11:08.925Z,99545.09
2022-09-15T07:13:36.533Z,99541.75
2022-09-15T07:16:05.766Z,99550.09
2022-09-15T07:18:33.519Z,99560.06
2022-09-15T07:21:03.247Z,99566.25
2022-09-15T07:23:30.313Z,99575.22
2022-09-15T07:26:07.329Z,99566.84
2022-09-15T07:28:37.321Z,99579.31
2022-09-15T07:31:06.238Z,99573.31
2022-09-15T07:33:33.957Z,99567.63
2022-09-15T07:36:02.967Z,99562.22
2022-09-15T07:38:35.557Z,99562.81
2022-09-15T07:41:04.178Z,99557.22
2022-09-15T07:43:31.266Z,99561.31
2022-09-15T07:45:58.898Z,99546.41
2022-09-15T07:48:34.835Z,99540.69
2022-09-15T07:51:01.768Z,99548.53
2022-09-15T07:53:31.766Z,99550.50
2022-09-15T07:55:58.449Z,99551.28
2022-09-15T07:58:25.490Z,99542.75
2022-09-15T08:00:52.519Z,99540.38
2022-09-15T08:03:19.204Z,99532.84
2022-09-15T08:05:46.211Z,99530.69
2022-09-15T08:08:13.465Z,99529.44
2022-09-15T08:10:41.826Z,99533.78
2022-09-15T08:13:08.943Z,99538.41
2022-09-15T08:15:37.672Z,99535.47
2022-09-15T08:18:06.064Z,99534.19
2022-09-15T08:20:33.691Z,99540.72
2022-09-15T08:23:00.522Z,99533.19
2022-09-15T08:25:27.236Z,99541.59
2022-09-15T08:27:55.074Z,99534.34
2022-09-15T08:30:22.318Z,99533.25
2022-09-15T08:32:49.685Z,99527.84
2022-09-15T08:35:17.290Z,99517.91
2022-09-15T08:37:43.960Z,99520.09
2022-09-15T08:40:35.878Z,99507.13
2022-09-15T08:43:16.335Z,99507.16
2022-09-15T08:46:03.085Z,99504.47
2022-09-15T08:49:02.751Z,99493.13
2022-09-15T08:51:42.179Z,99498.31
2022-09-15T08:54:17.522Z,99498.88
2022-09-15T08:56:44.750Z,99492.38
2022-09-15T08:59:14.915Z,99492.41
2022-09-15T09:02:09.817Z,99489.22
2022-09-15T09:04:55.199Z,99487.34
2022-09-15T09:07:59.903Z,99481.94
2022-09-15T09:11:02.273Z,99480.88
2022-09-15T09:13:41.383Z,99460.81
2022-09-15T09:16:18.370Z,99462.97
2022-09-15T09:19:01.998Z,99453.22
2022-09-15T09:21:52.824Z,99452.94
2022-09-15T09:24:34.521Z,99453.47
2022-09-15T09:27:01.250Z,99448.03
2022-09-15T09:29:40.112Z,99443.16
2022-09-15T09:32:25.193Z,99443.69
2022-09-15T09:35:03.204Z,99439.28
2022-09-15T09:37:30.358Z,99438.16
2022-09-15T09:39:57.165Z,99429.44
2022-09-15T09:42:31.878Z,99423.13
2022-09-15T09:44:58.602Z,99423.94
2022-09-15T09:47:29.750Z,99423.88
2022-09-15T09:49:56.617Z,99426.50
2022-09-15T09:52:34.298Z,99414.22
2022-09-15T09:55:21.192Z,99410.34
2022-09-15T09:57:47.990Z,99406.97
2022-09-15T10:00:36.504Z,99410.97
2022-09-15T10:03:17.379Z,99403.47
2022-09-15T10:05:45.449Z,99403.03
2022-09-15T10:08:20.213Z,99401.44
2022-09-15T10:10:55.957Z,99391.34
2022-09-15T10:13:22.743Z,99387.97
2022-09-15T10:15:59.329Z,99396.28
2022-09-15T10:18:34.164Z,99399.38
2022-09-15T10:21:03.753Z,99407.94
2022-09-15T10:23:33.308Z,99408.03
2022-09-15T10:26:15.013Z,99405.69
2022-09-15T10:28:42.598Z,99406.56
2022-09-15T10:31:26.706Z,99409.03
2022-09-15T10:33:53.537Z,99401.75
2022-09-15T10:36:28.319Z,99401.25
2022-09-15T10:39:10.468Z,99402.09
2022-09-15T10:41:49.827Z,99390.75
2022-09-15T10:44:38.942Z,99389.44
2022-09-15T10:47:33.576Z,99386.41
2022-09-15T10:50:14.563Z,99388.66
2022-09-15T10:52:57.419Z,99390.28
2022-09-15T10:55:51.116Z,99381.09
2022-09-15T10:58:32.418Z,99394.38
2022-09-15T11:01:17.759Z,99394.63
2022-09-15T11:04:00.368Z,99401.16
2022-09-15T11:06:50.378Z,99400.84
2022-09-15T11:09:42.241Z,99405.16
2022-09-15T11:12:28.417Z,99394.84
2022-09-15T11:15:05.462Z,99397.53
2022-09-15T11:18:19.294Z,99388.84
2022-09-15T11:21:01.119Z,99387.75
2022-09-15T11:23:27.901Z,99377.97
2022-09-15T11:26:03.555Z,99375.50
2022-09-15T11:28:45.862Z,99374.63
2022-09-15T11:31:23.117Z,99383.75
2022-09-15T11:33:58.229Z,99396.41
2022-09-15T11:36:40.959Z,99386.34
2022-09-15T11:39:16.230Z,99399.84
2022-09-15T11:41:56.540Z,99393.53
2022-09-15T11:44:31.462Z,99402.13
2022-09-15T11:47:10.006Z,99406.16
2022-09-15T11:49:36.901Z,99418.34
2022-09-15T11:52:14.653Z,99389.25
2022-09-15T11:54:51.180Z,99377.03
2022-09-15T11:57:25.414Z,99386.44
2022-09-15T11:59:58.900Z,99395.75
2022-09-15T12:02:41.285Z,99366.28
2022-09-15T12:05:11.139Z,99333.81
2022-09-15T12:07:47.695Z,99311.63
2022-09-15T12:10:35.400Z,99295.34
2022-09-15T12:13:02.920Z,99283.69
2022-09-15T12:15:29.926Z,99268.31
2022-09-15T12:18:27.250Z,99276.44
2022-09-15T12:21:13.633Z,99279.13
2022-09-15T12:23:54.374Z,99291.22
2022-09-15T12:26:23.447Z,99297.91
2022-09-15T12:28:56.164Z,99278.44
2022-09-15T12:31:23.434Z,99275.50
2022-09-15T12:33:57.029Z,99245.28
2022-09-15T12:36:52.498Z,99238.78
2022-09-15T12:39:30.140Z,99260.88
2022-09-15T12:41:59.858Z,99264.16
2022-09-15T12:44:32.092Z,99264.16
2022-09-15T12:47:01.020Z,99263.69
2022-09-15T12:49:35.448Z,99277.28
2022-09-15T12:52:07.454Z,99277.72
2022-09-15T12:54:38.826Z,99296.97
2022-09-15T12:57:15.682Z,99298.09
2022-09-15T12:59:42.618Z,99293.75
2022-09-15T13:02:45.654Z,99302.66
2022-09-15T13:05:13.066Z,99297.78
2022-09-15T13:07:53.930Z,99313.97
2022-09-15T13:10:35.752Z,99312.63
2022-09-15T13:13:28.868Z,99294.22
2022-09-15T13:16:00.493Z,99297.22
2022-09-15T13:18:30.984Z,99293.06
2022-09-15T13:21:05.371Z,99300.44
2022-09-15T13:23:39.963Z,99314.16
2022-09-15T13:26:12.277Z,99318.97
2022-09-15T13:28:39.607Z,99308.69
2022-09-15T13:31:20.154Z,99317.56
2022-09-15T13:40:16.129Z,99366.50
2022-09-15T13:43:05.147Z,99389.41
2022-09-15T13:46:06.403Z,99375.81
2022-09-15T13:48:44.202Z,99387.09
2022-09-15T13:51:31.395Z,99397.19
2022-09-15T13:54:15.254Z,99375.47
2022-09-15T13:56:42.172Z,99369.78
2022-09-15T13:59:18.593Z,99372.16
2022-09-15T14:01:46.059Z,99355.16
2022-09-15T14:04:37.318Z,99366.94
2022-09-15T14:07:04.170Z,99370.66
2022-09-15T14:09:33.360Z,99373.53
2022-09-15T14:12:08.174Z,99387.53
2022-09-15T14:14:40.356Z,99391.19
2022-09-15T14:17:45.247Z,99377.53
2022-09-15T14:20:25.639Z,99356.97
2022-09-15T14:22:53.005Z,99352.13
2022-09-15T14:25:20.905Z,99344.69
2022-09-15T14:27:50.893Z,99348.38
2022-09-15T14:30:30.028Z,99338.66
2022-09-15T14:33:00.783Z,99352.09
2022-09-15T14:35:35.773Z,99355.84
2022-09-15T14:38:02.684Z,99362.91
2022-09-15T14:40:40.053Z,99347.25
2022-09-15T14:43:35.709Z,99335.22
2022-09-15T14:46:14.877Z,99336.03
2022-09-15T14:48:41.840Z,99342.47
2022-09-15T14:51:21.597Z,99348.72
2022-09-15T14:53:52.148Z,99369.41
2022-09-15T14:56:22.927Z,99378.22
2022-09-15T14:59:04.070Z,99369.59
2022-09-15T15:01:46.467Z,99377.94
2022-09-15T15:04:19.388Z,99389.44
2022-09-15T15:06:48.891Z,99384.38
2022-09-15T15:09:25.936Z,99373.03
2022-09-15T15:11:57.780Z,99372.94
2022-09-15T15:14:25.010Z,99374.22
2022-09-15T15:16:56.779Z,99371.19
2022-09-15T15:19:34.254Z,99361.50
2022-09-15T15:22:15.985Z,99367.97
2022-09-15T15:24:53.175Z,99374.91
2022-09-15T15:27:35.134Z,99367.31
2022-09-15T15:30:29.641Z,99356.69
2022-09-15T15:32:59.840Z,99340.19
2022-09-15T15:35:27.737Z,99346.59
2022-09-15T15:38:02.471Z,99363.25
2022-09-15T15:40:29.970Z,99350.72
2022-09-15T15:43:02.157Z,99348.28
2022-09-15T15:45:31.284Z,99342.88
2022-09-15T15:47:58.386Z,99342.81
2022-09-15T15:50:28.273Z,99347.88
2022-09-15T15:52:55.273Z,99364.16
2022-09-15T15:55:24.875Z,99375.59
2022-09-15T15:57:54.286Z,99378.19
2022-09-15T16:00:41.900Z,99380.00
2022-09-15T16:03:08.840Z,99379.09
2022-09-15T16:05:36.169Z,99392.22
2022-09-15T16:08:06.808Z,99397.97
2022-09-15T16:10:40.640Z,99403.34
2022-09-15T16:13:09.728Z,99415.75
2022-09-15T16:15:36.537Z,99426.19
2022-09-15T16:18:04.215Z,99424.56
2022-09-15T16:20:30.971Z,99430.44
2022-09-15T16:22:57.716Z,99439.94
2022-09-15T16:25:40.073Z,99450.91
2022-09-15T16:28:06.829Z,99446.16
2022-09-15T16:30:33.677Z,99448.75
2022-09-15T16:33:00.472Z,99437.22
2022-09-15T16:35:39.329Z,99425.31
2022-09-15T16:38:07.360Z,99416.56
2022-09-15T16:40:34.248Z,99412.47
2022-09-15T16:43:00.979Z,99401.66
2022-09-15T16:45:39.808Z,99402.94
2022-09-15T16:48:08.762Z,99401.41
2022-09-15T16:50:37.785Z,99403.00
2022-09-15T16:53:09.438Z,99419.25
2022-09-15T16:55:45.598Z,99422.81
2022-09-15T16:58:13.952Z,99411.16
2022-09-15T17:00:41.684Z,99399.44
2022-09-15T17:03:09.106Z,99398.19
2022-09-15T17:05:37.637Z,99382.22
2022-09-15T17:08:05.797Z,99369.34
2022-09-15T17:10:33.547Z,99365.22
2022-09-15T17:13:03.193Z,99359.84
2022-09-15T17:15:38.757Z,99365.28
2022-09-15T17:18:10.074Z,99363.09
2022-09-15T17:20:39.915Z,99355.66
2022-09-15T17:23:27.700Z,99360.69
2022-09-15T17:26:00.198Z,99356.69
2022-09-15T17:28:30.015Z,99344.97
2022-09-15T17:31:02.852Z,99335.34
2022-09-15T17:33:31.265Z,99332.97
2022-09-15T17:35:58.927Z,99330.13
2022-09-15T17:38:25.980Z,99347.47
2022-09-15T17:40:55.231Z,99353.81
2022-09-15T17:43:25.645Z,99354.69
2022-09-15T17:45:53.226Z,99343.34
2022-09-15T17:48:20.833Z,99337.94
2022-09-15T17:50:48.849Z,99334.44
2022-09-15T17:53:24.088Z,99334.25
2022-09-15T17:55:51.476Z,99335.00
2022-09-15T17:58:18.645Z,99336.56
2022-09-15T18:00:47.806Z,99332.31
2022-09-15T18:03:35.515Z,99349.72
2022-09-15T18:06:06.600Z,99344.00
2022-09-15T18:08:34.194Z,99336.50
2022-09-15T18:11:01.407Z,99326.78
2022-09-15T18:13:29.987Z,99334.94
2022-09-15T18:15:57.961Z,99331.66
2022-09-15T18:18:27.274Z,99337.13
2022-09-15T18:20:56.852Z,99345.44
2022-09-15T18:23:26.021Z,99352.06
2022-09-15T18:25:52.713Z,99346.38
2022-09-15T18:28:20.189Z,99355.66
2022-09-15T18:30:49.312Z,99356.44
2022-09-15T18:33:19.830Z,99362.69
2022-09-15T18:35:48.480Z,99362.19
2022-09-15T18:38:16.430Z,99364.53
2022-09-15T18:40:49.133Z,99364.53
2022-09-15T18:43:17.000Z,99367.47
2022-09-15T18:45:44.025Z,99376.03
2022-09-15T18:48:13.057Z,99378.34
2022-09-15T18:50:41.095Z,99380.25
2022-09-15T18:53:07.855Z,99384.72
2022-09-15T18:55:34.951Z,99390.00
2022-09-15T18:58:02.398Z,99390.50
2022-09-15T19:00:29.325Z,99410.06
2022-09-15T19:03:00.644Z,99423.91
2022-09-15T19:05:28.911Z,99441.53
2022-09-15T19:07:56.117Z,99448.91
2022-09-15T19:10:23.933Z,99456.38
2022-09-15T19:12:50.927Z,99469.28
2022-09-15T19:15:17.823Z,99477.16
2022-09-15T19:17:45.032Z,99485.22
2022-09-15T19:20:14.986Z,99484.88
2022-09-15T19:22:42.650Z,99467.69
2022-09-15T19:25:11.090Z,99474.91
2022-09-15T19:27:39.565Z,99487.69
2022-09-15T19:30:09.884Z,99483.03
2022-09-15T19:32:38.310Z,99478.69
2022-09-15T19:35:06.052Z,99480.09
2022-09-15T19:37:37.200Z,99488.16
2022-09-15T19:40:08.342Z,99486.75
2022-09-15T19:42:36.377Z,99479.06
2022-09-15T19:45:03.126Z,99474.59
2022-09-15T19:47:29.923Z,99476.22
2022-09-15T19:49:56.760Z,99466.53
2022-09-15T19:52:23.466Z,99477.38
2022-09-15T19:54:50.102Z,99487.22
2022-09-15T19:57:16.851Z,99491.56
2022-09-15T19:59:44.701Z,99491.69
2022-09-15T20:02:12.047Z,99476.81
2022-09-15T20:04:41.993Z,99484.78
2022-09-15T20:07:08.677Z,99489.38
2022-09-15T20:09:35.758Z,99505.25
2022-09-15T20:12:03.468Z,99507.00
2022-09-15T20:14:31.411Z,99504.22
2022-09-15T20:17:00.941Z,99506.66
2022-09-15T20:19:28.579Z,99507.94
2022-09-15T20:21:55.362Z,99505.16
2022-09-15T20:24:23.680Z,99506.56
2022-09-15T20:26:50.921Z,99502.13
2022-09-15T20:29:17.870Z,99502.34
2022-09-15T20:31:44.773Z,99495.91
2022-09-15T20:34:11.459Z,99502.22
2022-09-15T20:36:39.369Z,99512.50
2022-09-15T20:39:11.990Z,99507.84
2022-09-15T20:41:40.092Z,99514.16
2022-09-15T20:44:09.467Z,99525.72
2022-09-15T20:46:37.105Z,99528.28
2022-09-15T20:49:04.923Z,99539.19
2022-09-15T20:51:33.606Z,99545.97
2022-09-15T20:54:03.382Z,99531.13
2022-09-15T20:56:30.799Z,99517.91
2022-09-15T20:58:59.226Z,99514.50
2022-09-15T21:01:33.814Z,99515.66
2022-09-15T21:04:00.926Z,99511.22
2022-09-15T21:06:28.466Z,99525.97
2022-09-15T21:08:56.795Z,99530.53
2022-09-15T21:11:26.631Z,99542.47
2022-09-15T21:13:53.844Z,99548.28
2022-09-15T21:16:23.118Z,99540.59
2022-09-15T21:18:50.820Z,99532.63
2022-09-15T21:21:22.990Z,99543.25
2022-09-15T21:23:55.470Z,99553.34
2022-09-15T21:26:25.087Z,99556.25
2022-09-15T21:28:52.108Z,99564.53
2022-09-15T21:31:24.369Z,99562.66
2022-09-15T21:33:52.492Z,99570.59
2022-09-15T21:36:24.601Z,99576.34
2022-09-15T21:38:54.738Z,99590.50
2022-09-15T21:41:23.588Z,99591.78
2022-09-15T21:43:55.579Z,99592.59
2022-09-15T21:46:25.911Z,99597.03
2022-09-15T21:48:53.015Z,99592.16
2022-09-15T21:51:24.627Z,99593.91
2022-09-15T21:53:56.105Z,99601.13
2022-09-15T21:56:24.350Z,99614.25
2022-09-15T21:58:51.418Z,99613.78
2022-09-15T22:01:28.105Z,99623.50
2022-09-15T22:04:00.630Z,99637.38
2022-09-15T22:06:40.519Z,99640.28
2022-09-15T22:09:10.817Z,99641.38
2022-09-15T22:11:37.542Z,99646.44
2022-09-15T22:14:08.103Z,99646.22
2022-09-15T22:16:36.777Z,99643.16
2022-09-15T22:19:05.410Z,99647.13
2022-09-15T22:21:32.675Z,99646.75
2022-09-15T22:23:59.647Z,99633.19
2022-09-15T22:26:28.962Z,99641.59
2022-09-15T22:28:56.591Z,99645.56
2022-09-15T22:31:24.547Z,99645.72
2022-09-15T22:33:52.126Z,99645.72
2022-09-15T22:36:28.852Z,99642.06
2022-09-15T22:39:02.826Z,99646.63
2022-09-15T22:41:30.491Z,99653.28
2022-09-15T22:43:57.227Z,99657.41
2022-09-15T22:46:23.968Z,99661.28
2022-09-15T22:48:50.620Z,99662.78
2022-09-15T22:51:17.333Z,99670.13
2022-09-15T22:53:44.143Z,99666.88
2022-09-15T22:56:21.579Z,99661.03
2022-09-15T22:58:49.619Z,99660.09
2022-09-15T23:01:22.267Z,99658.81
2022-09-15T23:03:53.864Z,99658.81
2022-09-15T23:06:21.815Z,99670.38
2022-09-15T23:08:53.126Z,99673.53
2022-09-15T23:11:20.889Z,99673.06
2022-09-15T23:13:48.297Z,99672.13
2022-09-15T23:16:15.041Z,99676.47
2022-09-15T23:18:41.791Z,99675.66
2022-09-15T23:21:10.430Z,99675.72
2022-09-15T23:23:39.284Z,99674.38
2022-09-15T23:26:08.186Z,99683.28
2022-09-15T23:28:35.072Z,99686.28
2022-09-15T23:31:02.254Z,99691.50
2022-09-15T23:33:31.326Z,99682.53
2022-09-15T23:36:02.581Z,99675.97
2022-09-15T23:38:29.646Z,99671.88
2022-09-15T23:40:56.804Z,99675.25
2022-09-15T23:43:23.582Z,99672.75
2022-09-15T23:45:51.301Z,99660.97
2022-09-15T23:48:18.091Z,99656.88
2022-09-15T23:50:45.007Z,99669.03
2022-09-15T23:53:11.914Z,99670.91
2022-09-15T23:55:38.816Z,99689.13
2022-09-15T23:58:05.933Z,99688.88
